sensor_id;sensor_type;location;lat;lon;timestamp;pressure;altitude;pressure_sealevel;temperature;humidity
38400;BME280;24180;42.676;23.320;2024-01-10T00:02:13;96010.75;;;-6.06;73.57
38400;BME280;24180;42.676;23.320;2024-01-10T00:04:38;96001.84;;;-6.09;73.10
38400;BME280;24180;42.676;23.320;2024-01-10T00:07:04;96014.63;;;-6.04;73.06
38400;BME280;24180;42.676;23.320;2024-01-10T00:09:30;96006.91;;;-6.09;73.12
38400;BME280;24180;42.676;23.320;2024-01-10T00:11:55;96009.59;;;-6.11;72.57
38400;BME280;24180;42.676;23.320;2024-01-10T00:14:21;96017.38;;;-5.99;73.88
38400;BME280;24180;42.676;23.320;2024-01-10T00:16:46;96009.81;;;-6.05;72.83
38400;BME280;24180;42.676;23.320;2024-01-10T00:19:12;96010.97;;;-6.01;73.21
38400;BME280;24180;42.676;23.320;2024-01-10T00:21:37;96013.84;;;-6.11;72.04
38400;BME280;24180;42.676;23.320;2024-01-10T00:24:03;96014.06;;;-6.06;72.18
38400;BME280;24180;42.676;23.320;2024-01-10T00:26:28;96022.97;;;-6.03;73.44
38400;BME280;24180;42.676;23.320;2024-01-10T00:28:54;96009.81;;;-6.05;72.69
38400;BME280;24180;42.676;23.320;2024-01-10T00:31:19;96023.72;;;-6.10;72.33
38400;BME280;24180;42.676;23.320;2024-01-10T00:33:45;96021.63;;;-6.06;72.93
38400;BME280;24180;42.676;23.320;2024-01-10T00:36:10;96024.53;;;-5.96;73.16
38400;BME280;24180;42.676;23.320;2024-01-10T00:38:36;96026.47;;;-5.98;73.07
38400;BME280;24180;42.676;23.320;2024-01-10T00:41:02;96022.59;;;-5.94;72.64
38400;BME280;24180;42.676;23.320;2024-01-10T00:43:28;96019.88;;;-5.86;72.60
38400;BME280;24180;42.676;23.320;2024-01-10T00:45:53;96021.03;;;-5.81;72.17
38400;BME280;24180;42.676;23.320;2024-01-10T00:48:19;96026.44;;;-5.78;72.48
38400;BME280;24180;42.676;23.320;2024-01-10T00:50:44;96027.59;;;-5.87;70.42
38400;BME280;24180;42.676;23.320;2024-01-10T00:53:10;96025.09;;;-5.94;71.70
38400;BME280;24180;42.676;23.320;2024-01-10T00:55:35;96016.97;;;-6.02;71.65
38400;BME280;24180;42.676;23.320;2024-01-10T00:58:01;96021.22;;;-5.90;71.00
38400;BME280;24180;42.676;23.320;2024-01-10T01:00:26;96011.34;;;-6.04;71.38
38400;BME280;24180;42.676;23.320;2024-01-10T01:02:52;96018.91;;;-5.98;72.40
38400;BME280;24180;42.676;23.320;2024-01-10T01:05:17;96019.28;;;-5.94;71.36
38400;BME280;24180;42.676;23.320;2024-01-10T01:07:43;96013.28;;;-6.00;71.52
38400;BME280;24180;42.676;23.320;2024-01-10T01:10:08;96022.59;;;-5.94;71.83
38400;BME280;24180;42.676;23.320;2024-01-10T01:12:34;96023.56;;;-6.01;72.09
38400;BME280;24180;42.676;23.320;2024-01-10T01:15:00;96012.88;;;-6.03;72.40
38400;BME280;24180;42.676;23.320;2024-01-10T01:17:25;96016.59;;;-5.99;71.88
38400;BME280;24180;42.676;23.320;2024-01-10T01:19:51;96015.59;;;-5.92;71.68
38400;BME280;24180;42.676;23.320;2024-01-10T01:22:16;95998.97;;;-6.06;72.78
38400;BME280;24180;42.676;23.320;2024-01-10T01:24:42;96007.47;;;-5.94;71.59
38400;BME280;24180;42.676;23.320;2024-01-10T01:27:07;96024.13;;;-5.86;71.34
38400;BME280;24180;42.676;23.320;2024-01-10T01:29:32;96019.88;;;-5.86;71.17
38400;BME280;24180;42.676;23.320;2024-01-10T01:31:58;96000.31;;;-5.97;71.85
38400;BME280;24180;42.676;23.320;2024-01-10T01:34:23;96005.13;;;-5.89;71.68
38400;BME280;24180;42.676;23.320;2024-01-10T01:36:49;96003.59;;;-5.90;70.61
38400;BME280;24180;42.676;23.320;2024-01-10T01:39:16;96000.69;;;-5.87;71.69
38400;BME280;24180;42.676;23.320;2024-01-10T01:41:42;96003.25;;;-5.93;71.13
38400;BME280;24180;42.676;23.320;2024-01-10T01:44:07;96016.22;;;-6.03;71.09
38400;BME280;24180;42.676;23.320;2024-01-10T01:46:33;96008.81;;;-6.11;72.22
38400;BME280;24180;42.676;23.320;2024-01-10T01:48:59;96009.03;;;-6.06;71.82
38400;BME280;24180;42.676;23.320;2024-01-10T01:51:26;96011.34;;;-5.98;71.76
38400;BME280;24180;42.676;23.320;2024-01-10T01:53:53;96007.06;;;-6.17;72.25
38400;BME280;24180;42.676;23.320;2024-01-10T01:56:20;95997.38;;;-6.14;72.34
38400;BME280;24180;42.676;23.320;2024-01-10T01:58:46;96003.00;;;-6.18;72.86
38400;BME280;24180;42.676;23.320;2024-01-10T02:01:14;95995.81;;;-6.28;72.75
38400;BME280;24180;42.676;23.320;2024-01-10T02:03:40;95987.50;;;-6.22;72.64
38400;BME280;24180;42.676;23.320;2024-01-10T02:06:06;95978.38;;;-6.16;73.01
38400;BME280;24180;42.676;23.320;2024-01-10T02:08:33;95985.75;;;-6.21;72.72
38400;BME280;24180;42.676;23.320;2024-01-10T02:10:59;95977.59;;;-6.23;73.68
38400;BME280;24180;42.676;23.320;2024-01-10T02:13:25;95991.94;;;-6.17;73.81
38400;BME280;24180;42.676;23.320;2024-01-10T02:15:51;95983.63;;;-6.11;73.06
38400;BME280;24180;42.676;23.320;2024-01-10T02:18:17;95985.75;;;-6.21;72.10
38400;BME280;24180;42.676;23.320;2024-01-10T02:20:44;95966.78;;;-6.24;72.51
38400;BME280;24180;42.676;23.320;2024-01-10T02:23:10;95972.78;;;-6.25;71.34
38400;BME280;24180;42.676;23.320;2024-01-10T02:25:36;95976.25;;;-6.26;71.84
38400;BME280;24180;42.676;23.320;2024-01-10T02:28:01;95981.47;;;-6.27;73.58
38400;BME280;24180;42.676;23.320;2024-01-10T02:30:27;95972.56;;;-6.37;72.78
38400;BME280;24180;42.676;23.320;2024-01-10T02:32:52;95979.09;;;-6.42;73.56
38400;BME280;24180;42.676;23.320;2024-01-10T02:35:18;95981.09;;;-6.31;72.18
38400;BME280;24180;42.676;23.320;2024-01-10T02:37:43;95978.00;;;-6.20;72.69
38400;BME280;24180;42.676;23.320;2024-01-10T02:40:10;95979.94;;;-6.28;72.68
38400;BME280;24180;42.676;23.320;2024-01-10T02:42:36;95986.91;;;-6.30;73.63
38400;BME280;24180;42.676;23.320;2024-01-10T02:45:01;95988.06;;;-6.26;73.52
38400;BME280;24180;42.676;23.320;2024-01-10T02:47:27;95977.59;;;-6.37;72.05
38400;BME280;24180;42.676;23.320;2024-01-10T02:49:54;95982.66;;;-6.17;71.76
38400;BME280;24180;42.676;23.320;2024-01-10T02:52:19;95982.41;;;-6.35;71.81
38400;BME280;24180;42.676;23.320;2024-01-10T02:54:45;95984.53;;;-6.39;72.36
38400;BME280;24180;42.676;23.320;2024-01-10T02:57:12;95984.78;;;-6.27;70.08
38400;BME280;24180;42.676;23.320;2024-01-10T02:59:37;95965.59;;;-6.41;70.06
38400;BME280;24180;42.676;23.320;2024-01-10T03:02:03;95988.78;;;-6.39;69.34
38400;BME280;24180;42.676;23.320;2024-01-10T03:04:29;95984.94;;;-6.35;68.98
38400;BME280;24180;42.676;23.320;2024-01-10T03:06:54;95978.34;;;-6.36;69.54
38400;BME280;24180;42.676;23.320;2024-01-10T03:09:20;95969.00;;;-6.56;70.83
38400;BME280;24180;42.676;23.320;2024-01-10T03:11:45;95978.31;;;-6.56;72.10
38400;BME280;24180;42.676;23.320;2024-01-10T03:14:11;95976.97;;;-6.52;72.36
38400;BME280;24180;42.676;23.320;2024-01-10T03:16:37;95981.00;;;-6.51;72.81
38400;BME280;24180;42.676;23.320;2024-01-10T03:19:03;95988.41;;;-6.43;72.31
38400;BME280;24180;42.676;23.320;2024-01-10T03:21:28;95977.38;;;-6.35;71.60
38400;BME280;24180;42.676;23.320;2024-01-10T03:23:58;95993.69;;;-6.24;72.40
38400;BME280;24180;42.676;23.320;2024-01-10T03:26:25;95992.94;;;-6.18;70.53
38400;BME280;24180;42.676;23.320;2024-01-10T03:28:50;95985.13;;;-6.37;70.76
38400;BME280;24180;42.676;23.320;2024-01-10T03:31:16;95990.78;;;-6.21;70.46
38400;BME280;24180;42.676;23.320;2024-01-10T03:33:42;95990.41;;;-6.18;71.94
38400;BME280;24180;42.676;23.320;2024-01-10T03:36:12;95980.50;;;-6.20;71.10
38400;BME280;24180;42.676;23.320;2024-01-10T03:38:37;95992.72;;;-6.17;72.07
38400;BME280;24180;42.676;23.320;2024-01-10T03:41:03;95991.97;;;-6.11;73.03
38400;BME280;24180;42.676;23.320;2024-01-10T03:43:28;95990.44;;;-6.05;71.84
38400;BME280;24180;42.676;23.320;2024-01-10T03:45:54;95992.38;;;-5.80;70.19
38400;BME280;24180;42.676;23.320;2024-01-10T03:48:20;95989.06;;;-5.94;71.72
38400;BME280;24180;42.676;23.320;2024-01-10T03:50:45;95983.06;;;-6.06;70.65
38400;BME280;24180;42.676;23.320;2024-01-10T03:53:11;95992.34;;;-6.07;70.62
38400;BME280;24180;42.676;23.320;2024-01-10T03:55:37;95988.91;;;-5.93;71.64
38400;BME280;24180;42.676;23.320;2024-01-10T03:58:02;95987.72;;;-6.03;71.23
38400;BME280;24180;42.676;23.320;2024-01-10T04:00:28;95992.72;;;-6.10;72.04
38400;BME280;24180;42.676;23.320;2024-01-10T04:02:53;95988.88;;;-6.06;71.30
38400;BME280;24180;42.676;23.320;2024-01-10T04:05:19;96001.50;;;-5.93;70.61
38400;BME280;24180;42.676;23.320;2024-01-10T04:07:45;96003.19;;;-6.06;71.19
38400;BME280;24180;42.676;23.320;2024-01-10T04:10:12;96007.47;;;-6.07;71.71
38400;BME280;24180;42.676;23.320;2024-01-10T04:12:45;96011.56;;;-5.99;70.71
38400;BME280;24180;42.676;23.320;2024-01-10T04:15:11;96010.75;;;-6.06;71.39
38400;BME280;24180;42.676;23.320;2024-01-10T04:17:37;96006.13;;;-6.03;70.29
38400;BME280;24180;42.676;23.320;2024-01-10T04:20:04;96007.47;;;-6.07;70.00
38400;BME280;24180;42.676;23.320;2024-01-10T04:22:29;96012.88;;;-6.17;69.33
38400;BME280;24180;42.676;23.320;2024-01-10T04:24:59;96012.06;;;-6.24;68.86
38400;BME280;24180;42.676;23.320;2024-01-10T04:27:26;96004.94;;;-6.14;67.91
38400;BME280;24180;42.676;23.320;2024-01-10T04:29:51;96002.41;;;-6.20;68.50
38400;BME280;24180;42.676;23.320;2024-01-10T04:32:17;96021.19;;;-6.16;67.76
38400;BME280;24180;42.676;23.320;2024-01-10T04:34:42;96019.22;;;-6.34;68.47
38400;BME280;24180;42.676;23.320;2024-01-10T04:37:08;96023.66;;;-6.36;67.68
38400;BME280;24180;42.676;23.320;2024-01-10T04:39:34;96023.91;;;-6.24;68.45
38400;BME280;24180;42.676;23.320;2024-01-10T04:41:59;96027.97;;;-6.17;67.81
38400;BME280;24180;42.676;23.320;2024-01-10T04:44:25;96039.59;;;-6.16;68.04
38400;BME280;24180;42.676;23.320;2024-01-10T04:46:51;96034.22;;;-6.06;66.89
38400;BME280;24180;42.676;23.320;2024-01-10T04:49:16;96042.69;;;-6.20;68.14
38400;BME280;24180;42.676;23.320;2024-01-10T04:51:42;96029.72;;;-6.17;67.16
38400;BME280;24180;42.676;23.320;2024-01-10T04:54:08;96044.66;;;-6.09;66.94
38400;BME280;24180;42.676;23.320;2024-01-10T04:56:34;96036.69;;;-6.13;67.46
38400;BME280;24180;42.676;23.320;2024-01-10T04:59:01;96047.00;;;-6.01;67.97
38400;BME280;24180;42.676;23.320;2024-01-10T05:01:27;96044.09;;;-5.98;67.76
38400;BME280;24180;42.676;23.320;2024-01-10T05:03:52;96045.84;;;-5.98;66.48
38400;BME280;24180;42.676;23.320;2024-01-10T05:06:18;96043.91;;;-5.96;67.10
38400;BME280;24180;42.676;23.320;2024-01-10T05:08:44;96039.44;;;-6.01;67.67
38400;BME280;24180;42.676;23.320;2024-01-10T05:11:09;96020.63;;;-6.18;67.58
38400;BME280;24180;42.676;23.320;2024-01-10T05:13:34;96033.41;;;-6.00;67.63
38400;BME280;24180;42.676;23.320;2024-01-10T05:16:00;96041.56;;;-6.04;67.66
38400;BME280;24180;42.676;23.320;2024-01-10T05:18:25;96052.03;;;-5.94;66.55
38400;BME280;24180;42.676;23.320;2024-01-10T05:20:51;96046.97;;;-6.07;67.54
38400;BME280;24180;42.676;23.320;2024-01-10T05:23:16;96050.06;;;-6.12;67.55
38400;BME280;24180;42.676;23.320;2024-01-10T05:25:42;96054.28;;;-6.26;67.50
38400;BME280;24180;42.676;23.320;2024-01-10T05:28:07;96054.09;;;-6.24;67.99
38400;BME280;24180;42.676;23.320;2024-01-10T05:30:33;96049.44;;;-6.27;69.22
38400;BME280;24180;42.676;23.320;2024-01-10T05:32:58;96049.84;;;-6.17;69.16
38400;BME280;24180;42.676;23.320;2024-01-10T05:35:24;96044.97;;;-6.32;66.63
38400;BME280;24180;42.676;23.320;2024-01-10T05:37:51;96058.56;;;-6.20;66.73
38400;BME280;24180;42.676;23.320;2024-01-10T05:40:18;96054.28;;;-6.19;68.24
38400;BME280;24180;42.676;23.320;2024-01-10T05:42:44;96064.56;;;-6.21;67.52
38400;BME280;24180;42.676;23.320;2024-01-10T05:45:09;96064.81;;;-6.09;67.35
38400;BME280;24180;42.676;23.320;2024-01-10T05:47:35;96054.91;;;-6.04;67.28
38400;BME280;24180;42.676;23.320;2024-01-10T05:50:01;96064.22;;;-5.98;67.90
38400;BME280;24180;42.676;23.320;2024-01-10T05:52:27;96056.09;;;-6.00;67.82
38400;BME280;24180;42.676;23.320;2024-01-10T05:54:52;96063.06;;;-5.89;66.56
38400;BME280;24180;42.676;23.320;2024-01-10T05:57:18;96062.47;;;-5.91;67.59
38400;BME280;24180;42.676;23.320;2024-01-10T05:59:44;96061.34;;;-5.81;67.34
38400;BME280;24180;42.676;23.320;2024-01-10T06:02:09;96055.50;;;-5.89;67.07
38400;BME280;24180;42.676;23.320;2024-01-10T06:04:35;96056.88;;;-5.86;65.84
38400;BME280;24180;42.676;23.320;2024-01-10T06:07:00;96062.53;;;-5.71;65.71
38400;BME280;24180;42.676;23.320;2024-01-10T06:09:26;96080.53;;;-5.80;65.58
38400;BME280;24180;42.676;23.320;2024-01-10T06:11:52;96074.69;;;-5.81;65.59
38400;BME280;24180;42.676;23.320;2024-01-10T06:14:18;96086.53;;;-5.75;66.78
38400;BME280;24180;42.676;23.320;2024-01-10T06:16:44;96082.25;;;-5.88;67.02
38400;BME280;24180;42.676;23.320;2024-01-10T06:19:11;96086.72;;;-5.76;67.05
38400;BME280;24180;42.676;23.320;2024-01-10T06:21:37;96085.59;;;-5.67;65.78
38400;BME280;24180;42.676;23.320;2024-01-10T06:24:03;96086.16;;;-5.65;66.03
38400;BME280;24180;42.676;23.320;2024-01-10T06:26:29;96100.13;;;-5.56;65.05
38400;BME280;24180;42.676;23.320;2024-01-10T06:28:54;96096.06;;;-5.64;65.49
38400;BME280;24180;42.676;23.320;2024-01-10T06:31:20;96102.66;;;-5.56;66.49
38400;BME280;24180;42.676;23.320;2024-01-10T06:33:45;96102.66;;;-5.56;66.08
38400;BME280;24180;42.676;23.320;2024-01-10T06:36:11;96101.09;;;-5.57;66.01
38400;BME280;24180;42.676;23.320;2024-01-10T06:38:38;96100.13;;;-5.49;65.16
38400;BME280;24180;42.676;23.320;2024-01-10T06:41:10;96107.69;;;-5.49;65.08
38400;BME280;24180;42.676;23.320;2024-01-10T06:43:39;96098.38;;;-5.62;63.60
38400;BME280;24180;42.676;23.320;2024-01-10T06:46:06;96111.00;;;-5.49;63.85
38400;BME280;24180;42.676;23.320;2024-01-10T06:48:31;96105.94;;;-5.49;63.76
38400;BME280;24180;42.676;23.320;2024-01-10T06:50:57;96118.56;;;-5.49;60.57
38400;BME280;24180;42.676;23.320;2024-01-10T06:53:23;96117.97;;;-5.51;59.69
38400;BME280;24180;42.676;23.320;2024-01-10T06:55:48;96114.69;;;-5.51;58.73
38400;BME280;24180;42.676;23.320;2024-01-10T06:58:14;96123.97;;;-5.58;58.86
38400;BME280;24180;42.676;23.320;2024-01-10T07:00:39;96117.75;;;-5.69;58.26
38400;BME280;24180;42.676;23.320;2024-01-10T07:03:05;96120.47;;;-5.64;58.99
38400;BME280;24180;42.676;23.320;2024-01-10T07:05:30;96129.22;;;-5.60;58.75
38400;BME280;24180;42.676;23.320;2024-01-10T07:07:59;96123.78;;;-5.64;59.68
38400;BME280;24180;42.676;23.320;2024-01-10T07:10:30;96122.41;;;-5.66;58.74
38400;BME280;24180;42.676;23.320;2024-01-10T07:12:56;96132.50;;;-5.66;57.43
38400;BME280;24180;42.676;23.320;2024-01-10T07:15:22;96119.88;;;-5.66;57.01
38400;BME280;24180;42.676;23.320;2024-01-10T07:17:48;96135.41;;;-5.56;56.45
38400;BME280;24180;42.676;23.320;2024-01-10T07:20:14;96129.41;;;-5.55;57.85
38400;BME280;24180;42.676;23.320;2024-01-10T07:22:39;96122.81;;;-5.63;58.17
38400;BME280;24180;42.676;23.320;2024-01-10T07:25:10;96139.13;;;-5.45;57.10
38400;BME280;24180;42.676;23.320;2024-01-10T07:27:35;96142.44;;;-5.45;56.09
38400;BME280;24180;42.676;23.320;2024-01-10T07:30:07;96142.03;;;-5.42;57.27
38400;BME280;24180;42.676;23.320;2024-01-10T07:32:42;96148.84;;;-5.35;56.85
38400;BME280;24180;42.676;23.320;2024-01-10T07:35:09;96135.25;;;-5.54;55.82
38400;BME280;24180;42.676;23.320;2024-01-10T07:37:42;96152.13;;;-5.42;56.59
38400;BME280;24180;42.676;23.320;2024-01-10T07:40:10;96159.31;;;-5.39;56.83
38400;BME280;24180;42.676;23.320;2024-01-10T07:42:37;96152.13;;;-5.35;57.51
38400;BME280;24180;42.676;23.320;2024-01-10T07:45:03;96162.22;;;-5.28;56.69
38400;BME280;24180;42.676;23.320;2024-01-10T07:47:30;96156.97;;;-5.20;56.89
38400;BME280;24180;42.676;23.320;2024-01-10T07:49:57;96151.16;;;-5.14;53.81
38400;BME280;24180;42.676;23.320;2024-01-10T07:52:22;96155.25;;;-5.13;53.18
38400;BME280;24180;42.676;23.320;2024-01-10T07:54:48;96150.97;;;-5.26;55.75
38400;BME280;24180;42.676;23.320;2024-01-10T07:57:13;96138.56;;;-5.27;55.33
38400;BME280;24180;42.676;23.320;2024-01-10T07:59:39;96159.16;;;-5.04;55.27
38400;BME280;24180;42.676;23.320;2024-01-10T08:02:05;96159.72;;;-5.15;53.69
38400;BME280;24180;42.676;23.320;2024-01-10T08:04:30;96160.47;;;-5.21;53.27
38400;BME280;24180;42.676;23.320;2024-01-10T08:06:56;96158.34;;;-5.24;54.56
38400;BME280;24180;42.676;23.320;2024-01-10T08:09:22;96142.44;;;-5.18;56.00
38400;BME280;24180;42.676;23.320;2024-01-10T08:11:49;96151.38;;;-5.09;56.94
38400;BME280;24180;42.676;23.320;2024-01-10T08:14:14;96161.09;;;-4.93;54.93
38400;BME280;24180;42.676;23.320;2024-01-10T08:16:41;96168.63;;;-4.79;54.21
38400;BME280;24180;42.676;23.320;2024-01-10T08:19:07;96167.88;;;-4.73;54.10
38400;BME280;24180;42.676;23.320;2024-01-10T08:21:33;96157.19;;;-4.69;54.40
38400;BME280;24180;42.676;23.320;2024-01-10T08:23:58;96164.00;;;-4.62;53.26
38400;BME280;24180;42.676;23.320;2024-01-10T08:26:24;96159.13;;;-4.57;52.23
38400;BME280;24180;42.676;23.320;2024-01-10T08:28:49;96166.91;;;-4.65;52.99
38400;BME280;24180;42.676;23.320;2024-01-10T08:31:17;96172.91;;;-4.67;52.96
38400;BME280;24180;42.676;23.320;2024-01-10T08:33:43;96168.63;;;-4.73;52.61
38400;BME280;24180;42.676;23.320;2024-01-10T08:36:08;96156.00;;;-4.66;53.49
38400;BME280;24180;42.676;23.320;2024-01-10T08:38:38;96166.31;;;-4.68;52.27
38400;BME280;24180;42.676;23.320;2024-01-10T08:41:04;96153.91;;;-4.62;52.68
38400;BME280;24180;42.676;23.320;2024-01-10T08:43:29;96166.69;;;-4.57;52.85
38400;BME280;24180;42.676;23.320;2024-01-10T08:45:56;96159.13;;;-4.64;53.79
38400;BME280;24180;42.676;23.320;2024-01-10T08:48:24;96177.94;;;-4.67;54.25
38400;BME280;24180;42.676;23.320;2024-01-10T08:50:50;96174.47;;;-4.59;54.34
38400;BME280;24180;42.676;23.320;2024-01-10T08:53:16;96181.66;;;-4.62;54.20
38400;BME280;24180;42.676;23.320;2024-01-10T08:55:41;96174.25;;;-4.51;54.26
38400;BME280;24180;42.676;23.320;2024-01-10T08:58:07;96168.25;;;-4.63;53.59
38400;BME280;24180;42.676;23.320;2024-01-10T09:00:33;96170.19;;;-4.65;53.38
38400;BME280;24180;42.676;23.320;2024-01-10T09:03:00;96158.72;;;-4.61;54.27
38400;BME280;24180;42.676;23.320;2024-01-10T09:05:25;96170.94;;;-4.45;53.99
38400;BME280;24180;42.676;23.320;2024-01-10T09:07:51;96160.66;;;-4.36;55.40
38400;BME280;24180;42.676;23.320;2024-01-10T09:10:19;96169.16;;;-4.24;53.69
38400;BME280;24180;42.676;23.320;2024-01-10T09:12:47;96172.41;;;-4.10;53.32
38400;BME280;24180;42.676;23.320;2024-01-10T09:15:13;96163.03;;;-3.97;52.31
38400;BME280;24180;42.676;23.320;2024-01-10T09:17:42;96163.41;;;-3.93;53.64
38400;BME280;24180;42.676;23.320;2024-01-10T09:20:09;96162.03;;;-3.82;55.85
38400;BME280;24180;42.676;23.320;2024-01-10T09:22:35;96163.91;;;-3.71;53.17
38400;BME280;24180;42.676;23.320;2024-01-10T09:25:01;96160.22;;;-3.37;53.22
38400;BME280;24180;42.676;23.320;2024-01-10T09:27:32;96166.59;;;-2.71;51.79
38400;BME280;24180;42.676;23.320;2024-01-10T09:30:02;96166.06;;;-2.18;50.01
38400;BME280;24180;42.676;23.320;2024-01-10T09:32:28;96163.50;;;-1.62;50.24
38400;BME280;24180;42.676;23.320;2024-01-10T09:34:55;96151.84;;;-1.10;48.07
38400;BME280;24180;42.676;23.320;2024-01-10T09:37:21;96151.25;;;-0.70;46.79
38400;BME280;24180;42.676;23.320;2024-01-10T09:39:46;96158.75;;;-0.28;45.21
38400;BME280;24180;42.676;23.320;2024-01-10T09:42:11;96158.31;;;0.15;44.29
38400;BME280;24180;42.676;23.320;2024-01-10T09:44:40;96155.38;;;-0.17;45.12
38400;BME280;24180;42.676;23.320;2024-01-10T09:47:06;96156.50;;;0.28;45.90
38400;BME280;24180;42.676;23.320;2024-01-10T09:49:31;96144.59;;;1.07;44.89
38400;BME280;24180;42.676;23.320;2024-01-10T09:51:59;96157.25;;;1.92;41.99
38400;BME280;24180;42.676;23.320;2024-01-10T09:54:26;96146.94;;;2.52;42.12
38400;BME280;24180;42.676;23.320;2024-01-10T09:56:52;96143.50;;;2.20;40.14
38400;BME280;24180;42.676;23.320;2024-01-10T09:59:21;96143.19;;;2.92;40.77
38400;BME280;24180;42.676;23.320;2024-01-10T10:01:46;96125.22;;;2.82;40.45
38400;BME280;24180;42.676;23.320;2024-01-10T10:04:12;96132.38;;;2.53;38.83
38400;BME280;24180;42.676;23.320;2024-01-10T10:06:38;96146.31;;;2.45;41.59
38400;BME280;24180;42.676;23.320;2024-01-10T10:09:04;96141.56;;;2.81;38.84
38400;BME280;24180;42.676;23.320;2024-01-10T10:11:30;96137.06;;;2.39;38.78
38400;BME280;24180;42.676;23.320;2024-01-10T10:13:55;96129.88;;;3.28;35.67
38400;BME280;24180;42.676;23.320;2024-01-10T10:16:25;96124.22;;;3.63;36.19
38400;BME280;24180;42.676;23.320;2024-01-10T10:18:51;96126.22;;;3.56;35.20
38400;BME280;24180;42.676;23.320;2024-01-10T10:21:25;96118.09;;;3.69;35.47
38400;BME280;24180;42.676;23.320;2024-01-10T10:23:59;96108.06;;;3.15;36.60
38400;BME280;24180;42.676;23.320;2024-01-10T10:26:26;96113.09;;;3.94;35.12
38400;BME280;24180;42.676;23.320;2024-01-10T10:28:52;96107.25;;;3.99;36.25
38400;BME280;24180;42.676;23.320;2024-01-10T10:31:19;96096.34;;;4.45;34.65
38400;BME280;24180;42.676;23.320;2024-01-10T10:33:45;96094.81;;;4.59;36.00
38400;BME280;24180;42.676;23.320;2024-01-10T10:36:14;96090.72;;;4.73;35.45
38400;BME280;24180;42.676;23.320;2024-01-10T10:38:40;96086.09;;;4.45;34.16
38400;BME280;24180;42.676;23.320;2024-01-10T10:41:06;96089.34;;;4.14;36.06
38400;BME280;24180;42.676;23.320;2024-01-10T10:43:37;96072.97;;;4.20;36.16
38400;BME280;24180;42.676;23.320;2024-01-10T10:46:07;96080.03;;;3.83;37.45
38400;BME280;24180;42.676;23.320;2024-01-10T10:48:34;96068.84;;;4.04;37.86
38400;BME280;24180;42.676;23.320;2024-01-10T10:51:08;96070.50;;;4.82;35.98
38400;BME280;24180;42.676;23.320;2024-01-10T10:53:35;96073.03;;;4.77;34.53
38400;BME280;24180;42.676;23.320;2024-01-10T10:56:02;96066.09;;;4.72;34.91
38400;BME280;24180;42.676;23.320;2024-01-10T10:58:30;96058.41;;;4.98;36.28
38400;BME280;24180;42.676;23.320;2024-01-10T11:00:57;96051.00;;;4.86;36.06
38400;BME280;24180;42.676;23.320;2024-01-10T11:03:23;96056.34;;;5.20;36.32
38400;BME280;24180;42.676;23.320;2024-01-10T11:05:51;96049.19;;;4.97;35.36
38400;BME280;24180;42.676;23.320;2024-01-10T11:08:19;96045.63;;;4.57;36.85
38400;BME280;24180;42.676;23.320;2024-01-10T11:10:46;96032.84;;;4.57;36.46
38400;BME280;24180;42.676;23.320;2024-01-10T11:13:36;96049.47;;;3.50;38.81
38400;BME280;24180;42.676;23.320;2024-01-10T11:16:26;96034.44;;;2.10;41.38
38400;BME280;24180;42.676;23.320;2024-01-10T11:24:14;96020.53;;;0.35;44.78
38400;BME280;24180;42.676;23.320;2024-01-10T11:26:40;96022.44;;;0.28;45.18
38400;BME280;24180;42.676;23.320;2024-01-10T11:29:05;96016.91;;;-0.14;46.28
38400;BME280;24180;42.676;23.320;2024-01-10T11:31:33;96010.09;;;-0.54;47.00
38400;BME280;24180;42.676;23.320;2024-01-10T11:34:02;96019.81;;;-0.75;48.67
38400;BME280;24180;42.676;23.320;2024-01-10T11:36:28;96007.94;;;-1.09;48.22
38400;BME280;24180;42.676;23.320;2024-01-10T11:38:58;96012.03;;;-1.08;50.13
38400;BME280;24180;42.676;23.320;2024-01-10T11:41:38;96003.19;;;-1.29;49.74
38400;BME280;24180;42.676;23.320;2024-01-10T11:46:34;95994.16;;;-1.49;49.96
38400;BME280;24180;42.676;23.320;2024-01-10T11:49:00;96000.44;;;-1.39;50.15
38400;BME280;24180;42.676;23.320;2024-01-10T11:51:25;95991.19;;;-1.34;51.45
38400;BME280;24180;42.676;23.320;2024-01-10T11:53:51;95989.97;;;-1.43;50.61
38400;BME280;24180;42.676;23.320;2024-01-10T11:56:18;95965.69;;;-1.62;50.95
38400;BME280;24180;42.676;23.320;2024-01-10T11:59:05;95986.88;;;-1.45;50.70
38400;BME280;24180;42.676;23.320;2024-01-10T12:01:36;95985.44;;;-1.41;51.63
38400;BME280;24180;42.676;23.320;2024-01-10T12:04:03;95981.47;;;-1.37;51.14
38400;BME280;24180;42.676;23.320;2024-01-10T12:06:34;95978.28;;;-1.32;52.11
38400;BME280;24180;42.676;23.320;2024-01-10T12:08:59;95981.03;;;-1.34;50.53
38400;BME280;24180;42.676;23.320;2024-01-10T12:11:29;95969.66;;;-1.43;51.33
38400;BME280;24180;42.676;23.320;2024-01-10T12:13:55;95970.00;;;-1.51;52.62
38400;BME280;24180;42.676;23.320;2024-01-10T12:16:23;95967.44;;;-1.51;52.17
38400;BME280;24180;42.676;23.320;2024-01-10T12:18:48;95969.09;;;-1.45;52.88
38400;BME280;24180;42.676;23.320;2024-01-10T12:21:14;95957.63;;;-1.48;52.77
38400;BME280;24180;42.676;23.320;2024-01-10T12:23:39;95966.00;;;-1.47;51.72
38400;BME280;24180;42.676;23.320;2024-01-10T12:26:09;95964.47;;;-1.48;51.65
38400;BME280;24180;42.676;23.320;2024-01-10T12:28:38;95966.44;;;-1.50;51.94
38400;BME280;24180;42.676;23.320;2024-01-10T12:31:04;95963.59;;;-1.42;52.90
38400;BME280;24180;42.676;23.320;2024-01-10T12:33:32;95963.81;;;-1.44;52.00
38400;BME280;24180;42.676;23.320;2024-01-10T12:38:30;95963.28;;;-1.34;51.79
38400;BME280;24180;42.676;23.320;2024-01-10T12:40:57;95958.28;;;-1.29;51.97
38400;BME280;24180;42.676;23.320;2024-01-10T12:43:22;95961.06;;;-1.30;51.93
38400;BME280;24180;42.676;23.320;2024-01-10T12:45:48;95958.72;;;-1.44;53.02
38400;BME280;24180;42.676;23.320;2024-01-10T12:48:13;95963.72;;;-1.37;54.24
38400;BME280;24180;42.676;23.320;2024-01-10T12:50:42;95965.59;;;-1.32;53.75
38400;BME280;24180;42.676;23.320;2024-01-10T12:53:07;95943.84;;;-1.52;53.98
38400;BME280;24180;42.676;23.320;2024-01-10T12:55:33;95956.56;;;-1.40;54.30
38400;BME280;24180;42.676;23.320;2024-01-10T12:57:58;95957.63;;;-1.36;55.06